createdAt,value
2023-03-22T00:01:19.862Z,21.52
2023-03-22T00:03:48.540Z,19.15
2023-03-22T00:06:16.896Z,21.00
2023-03-22T00:08:45.066Z,22.17
2023-03-22T00:11:13.091Z,17.60
2023-03-22T00:13:43.090Z,20.40
2023-03-22T00:16:11.240Z,19.00
2023-03-22T00:18:38.400Z,23.95
2023-03-22T00:21:05.709Z,17.90
2023-03-22T00:23:32.805Z,22.73
2023-03-22T00:25:59.817Z,20.25
2023-03-22T00:28:27.336Z,23.02
2023-03-22T00:30:57.389Z,20.90
2023-03-22T00:33:24.743Z,19.95
2023-03-22T00:35:59.483Z,17.70
2023-03-22T00:38:42.066Z,23.08
2023-03-22T00:43:49.164Z,21.40
2023-03-22T00:46:18.443Z,21.00
2023-03-22T00:48:46.035Z,16.27
2023-03-22T00:51:13.932Z,19.30
2023-03-22T00:53:43.319Z,14.80
2023-03-22T00:56:14.376Z,20.23
2023-03-22T00:58:42.842Z,20.27
2023-03-22T01:01:14.192Z,18.52
2023-03-22T01:03:43.372Z,17.05
2023-03-22T01:06:11.335Z,15.32
2023-03-22T01:08:39.247Z,18.52
2023-03-22T01:11:07.881Z,20.30
2023-03-22T01:13:37.908Z,18.90
2023-03-22T01:16:06.642Z,16.98
2023-03-22T01:18:34.144Z,16.77
2023-03-22T01:21:01.251Z,16.65
2023-03-22T01:23:28.513Z,19.10
2023-03-22T01:25:55.597Z,19.60
2023-03-22T01:28:23.335Z,16.30
2023-03-22T01:30:51.837Z,21.67
2023-03-22T01:33:18.876Z,16.35
2023-03-22T01:35:45.949Z,22.13
2023-03-22T01:38:13.209Z,19.35
2023-03-22T01:40:40.528Z,20.45
2023-03-22T01:43:17.396Z,16.73
2023-03-22T01:45:48.129Z,18.20
2023-03-22T01:48:36.708Z,18.30
2023-03-22T01:51:12.202Z,19.33
2023-03-22T01:53:48.334Z,18.05
2023-03-22T01:56:16.664Z,21.13
2023-03-22T01:58:43.653Z,20.92
2023-03-22T02:01:11.814Z,24.80
2023-03-22T02:04:07.315Z,23.45
2023-03-22T02:06:38.459Z,19.08
2023-03-22T02:09:08.337Z,21.50
2023-03-22T02:11:42.420Z,20.73
2023-03-22T02:14:38.918Z,18.15
2023-03-22T02:17:44.407Z,21.17
2023-03-22T02:20:38.498Z,23.02
2023-03-22T02:23:30.196Z,20.83
2023-03-22T02:26:33.901Z,23.13
2023-03-22T02:29:00.988Z,21.73
2023-03-22T02:31:30.858Z,21.13
2023-03-22T02:34:25.555Z,24.88
2023-03-22T02:37:04.665Z,19.52
2023-03-22T02:39:40.836Z,20.67
2023-03-22T02:42:07.803Z,21.13
2023-03-22T02:44:47.157Z,18.08
2023-03-22T02:47:39.015Z,18.80
2023-03-22T02:50:27.675Z,20.02
2023-03-22T02:53:10.074Z,19.88
2023-03-22T02:55:48.795Z,18.02
2023-03-22T02:58:21.631Z,18.27
2023-03-22T03:00:53.673Z,24.55
2023-03-22T03:03:25.660Z,22.52
2023-03-22T03:05:56.770Z,22.35
2023-03-22T03:10:54.432Z,21.75
2023-03-22T03:13:21.561Z,20.42
2023-03-22T03:15:59.359Z,23.27
2023-03-22T03:18:29.885Z,21.98
2023-03-22T03:21:25.085Z,23.52
2023-03-22T03:24:19.632Z,22.13
2023-03-22T03:27:17.133Z,21.40
2023-03-22T03:29:50.376Z,18.58
2023-03-22T03:32:25.834Z,21.20
2023-03-22T03:35:05.648Z,20.17
2023-03-22T03:38:02.447Z,20.52
2023-03-22T03:40:33.248Z,16.48
2023-03-22T03:43:03.723Z,16.67
2023-03-22T03:45:31.569Z,17.52
2023-03-22T03:48:02.007Z,20.67
2023-03-22T03:50:29.504Z,17.25
2023-03-22T03:52:56.876Z,16.33
2023-03-22T03:55:25.033Z,19.00
2023-03-22T03:57:52.160Z,16.58
2023-03-22T04:00:19.476Z,17.95
2023-03-22T04:02:46.543Z,14.50
2023-03-22T04:05:14.085Z,17.90
2023-03-22T04:07:41.337Z,19.60
2023-03-22T04:10:09.036Z,18.83
2023-03-22T04:12:36.514Z,15.82
2023-03-22T04:15:03.567Z,17.08
2023-03-22T04:17:32.369Z,18.83
2023-03-22T04:19:59.376Z,17.33
2023-03-22T04:22:26.826Z,16.05
2023-03-22T04:24:54.048Z,14.75
2023-03-22T04:27:22.637Z,17.17
2023-03-22T04:29:51.206Z,17.20
2023-03-22T04:32:19.412Z,15.50
2023-03-22T04:34:46.713Z,14.70
2023-03-22T04:37:15.250Z,14.85
2023-03-22T04:39:42.993Z,14.48
2023-03-22T04:42:10.507Z,14.45
2023-03-22T04:44:37.551Z,13.68
2023-03-22T04:47:10.318Z,13.20
2023-03-22T04:49:37.545Z,13.45
2023-03-22T04:52:04.636Z,14.88
2023-03-22T04:54:31.673Z,12.77
2023-03-22T04:56:58.718Z,11.20
2023-03-22T04:59:25.792Z,12.55
2023-03-22T05:01:52.897Z,11.60
2023-03-22T05:04:20.925Z,10.00
2023-03-22T05:06:48.353Z,13.18
2023-03-22T05:09:15.618Z,10.85
2023-03-22T05:11:43.336Z,10.52
2023-03-22T05:14:11.058Z,11.65
2023-03-22T05:16:40.865Z,8.00
2023-03-22T05:19:14.207Z,7.78
2023-03-22T05:21:44.273Z,8.13
2023-03-22T05:24:11.880Z,10.88
2023-03-22T05:26:42.383Z,6.63
2023-03-22T05:29:13.745Z,8.45
2023-03-22T05:31:40.710Z,7.32
2023-03-22T05:34:08.326Z,6.38
2023-03-22T05:36:36.794Z,6.78
2023-03-22T05:39:04.158Z,4.38
2023-03-22T05:41:36.372Z,3.65
2023-03-22T05:44:04.687Z,3.30
2023-03-22T05:46:31.683Z,3.72
2023-03-22T05:48:58.620Z,3.60
2023-03-22T05:51:25.880Z,3.55
2023-03-22T05:53:56.406Z,3.47
2023-03-22T05:56:24.740Z,3.58
2023-03-22T05:58:52.186Z,4.13
2023-03-22T06:01:21.622Z,3.28
2023-03-22T06:03:49.352Z,3.45
2023-03-22T06:06:16.438Z,3.63
2023-03-22T06:08:43.862Z,3.38
2023-03-22T06:11:11.243Z,4.30
2023-03-22T06:13:38.419Z,3.95
2023-03-22T06:16:06.197Z,4.22
2023-03-22T06:18:33.672Z,3.00
2023-03-22T06:21:00.954Z,2.97
2023-03-22T06:23:28.537Z,2.70
2023-03-22T06:25:55.739Z,3.10
2023-03-22T06:28:22.774Z,2.92
2023-03-22T06:30:49.851Z,2.47
2023-03-22T06:33:17.287Z,2.85
2023-03-22T06:35:44.322Z,3.00
2023-03-22T06:38:11.291Z,2.70
2023-03-22T06:40:38.568Z,2.80
2023-03-22T06:43:07.229Z,2.58
2023-03-22T06:45:36.181Z,2.97
2023-03-22T06:48:03.216Z,2.55
2023-03-22T06:50:30.289Z,2.63
2023-03-22T06:52:57.387Z,3.50
2023-03-22T06:55:24.595Z,2.65
2023-03-22T06:57:51.574Z,3.65
2023-03-22T07:00:18.988Z,2.35
2023-03-22T07:02:46.194Z,2.70
2023-03-22T07:05:14.769Z,2.38
2023-03-22T07:07:41.875Z,3.60
2023-03-22T07:10:09.233Z,2.83
2023-03-22T07:12:36.486Z,2.28
2023-03-22T07:15:04.004Z,2.42
2023-03-22T07:17:31.457Z,2.30
2023-03-22T07:19:58.489Z,4.82
2023-03-22T07:22:26.072Z,3.03
2023-03-22T07:24:57.713Z,2.90
2023-03-22T07:27:25.543Z,2.50
2023-03-22T07:29:52.802Z,2.90
2023-03-22T07:32:19.923Z,3.83
2023-03-22T07:34:47.237Z,2.50
2023-03-22T07:37:15.133Z,2.85
2023-03-22T07:39:42.216Z,2.85
2023-03-22T07:42:09.714Z,2.38
2023-03-22T07:44:36.852Z,2.95
2023-03-22T07:47:04.140Z,2.70
2023-03-22T07:49:31.882Z,2.53
2023-03-22T07:51:58.933Z,3.78
2023-03-22T07:54:33.515Z,3.70
2023-03-22T07:57:01.520Z,2.28
2023-03-22T07:59:28.765Z,2.72
2023-03-22T08:01:55.909Z,2.08
2023-03-22T08:04:23.243Z,2.50
2023-03-22T08:06:51.822Z,2.70
2023-03-22T08:09:18.803Z,2.50
2023-03-22T08:11:45.992Z,3.63
2023-03-22T08:14:13.338Z,4.07
2023-03-22T08:16:41.822Z,2.17
2023-03-22T08:19:08.881Z,2.83
2023-03-22T08:21:36.387Z,3.80
2023-03-22T08:24:04.447Z,3.85
2023-03-22T08:26:31.534Z,2.58
2023-03-22T08:28:58.505Z,2.35
2023-03-22T08:31:26.526Z,5.68
2023-03-22T08:33:53.640Z,2.78
2023-03-22T08:36:25.176Z,4.03
2023-03-22T08:38:53.383Z,2.90
2023-03-22T08:41:20.412Z,2.65
2023-03-22T08:43:47.417Z,2.80
2023-03-22T08:46:14.476Z,3.03
2023-03-22T08:48:41.848Z,3.30
2023-03-22T08:51:09.173Z,6.60
2023-03-22T08:53:36.182Z,2.22
2023-03-22T08:56:03.974Z,2.65
2023-03-22T08:58:31.323Z,4.18
2023-03-22T09:00:58.534Z,2.38
2023-03-22T09:03:25.884Z,4.32
2023-03-22T09:05:53.112Z,1.92
2023-03-22T09:08:20.627Z,3.28
2023-03-22T09:10:51.712Z,2.35
2023-03-22T09:13:19.792Z,3.97
2023-03-22T09:15:47.542Z,1.98
2023-03-22T09:18:15.186Z,5.00
2023-03-22T09:20:43.895Z,4.65
2023-03-22T09:23:10.902Z,2.47
2023-03-22T09:25:38.203Z,2.65
2023-03-22T09:28:05.868Z,2.78
2023-03-22T09:30:32.959Z,2.78
2023-03-22T09:32:59.918Z,3.35
2023-03-22T09:35:27.010Z,6.07
2023-03-22T09:37:54.787Z,3.55
2023-03-22T09:40:32.308Z,4.32
2023-03-22T09:43:06.484Z,2.38
2023-03-22T09:45:39.820Z,2.55
2023-03-22T09:48:38.473Z,6.35
2023-03-22T09:51:20.099Z,2.40
2023-03-22T09:53:47.189Z,5.72
2023-03-22T09:56:21.147Z,2.97
2023-03-22T09:58:57.796Z,3.83
2023-03-22T10:01:24.947Z,2.90
2023-03-22T10:04:18.072Z,2.35
2023-03-22T10:06:51.570Z,4.57
2023-03-22T10:09:27.306Z,2.42
2023-03-22T10:12:01.204Z,2.15
2023-03-22T10:14:36.086Z,3.65
2023-03-22T10:17:08.742Z,3.55
2023-03-22T10:19:40.399Z,2.53
2023-03-22T10:22:12.821Z,4.18
2023-03-22T10:24:44.575Z,4.18
2023-03-22T10:27:20.161Z,3.40
2023-03-22T10:30:08.500Z,2.60
2023-03-22T10:33:00.814Z,6.03
2023-03-22T10:35:28.653Z,2.60
2023-03-22T10:38:02.336Z,2.80
2023-03-22T10:40:32.959Z,3.47
2023-03-22T10:43:30.540Z,3.60
2023-03-22T10:45:59.121Z,3.33
2023-03-22T10:48:33.820Z,2.80
2023-03-22T10:51:01.439Z,2.45
2023-03-22T10:53:41.595Z,2.72
2023-03-22T10:56:18.963Z,13.25
2023-03-22T10:58:49.974Z,5.03
2023-03-22T11:01:30.225Z,3.83
2023-03-22T11:04:00.463Z,2.83
2023-03-22T11:06:30.194Z,3.17
2023-03-22T11:09:12.011Z,3.63
2023-03-22T11:11:50.012Z,4.70
2023-03-22T11:14:22.978Z,2.25
2023-03-22T11:17:01.208Z,5.93
2023-03-22T11:19:39.771Z,2.92
2023-03-22T11:22:22.976Z,3.15
2023-03-22T11:24:51.960Z,2.00
2023-03-22T11:27:28.922Z,3.03
2023-03-22T11:30:08.454Z,4.75
2023-03-22T11:32:40.132Z,3.35
2023-03-22T11:35:21.116Z,3.65
2023-03-22T11:37:51.166Z,2.97
2023-03-22T11:40:27.048Z,4.55
2023-03-22T11:43:16.390Z,2.47
2023-03-22T11:45:44.995Z,2.60
2023-03-22T11:48:19.233Z,2.67
2023-03-22T11:50:47.304Z,3.05
2023-03-22T11:53:18.257Z,5.10
2023-03-22T11:55:48.249Z,2.42
2023-03-22T11:58:28.373Z,3.28
2023-03-22T12:00:59.874Z,2.25
2023-03-22T12:03:31.498Z,2.70
2023-03-22T12:06:06.036Z,2.85
2023-03-22T12:08:52.739Z,4.13
2023-03-22T12:11:28.210Z,2.08
2023-03-22T12:14:00.371Z,1.88
2023-03-22T12:16:53.908Z,2.95
2023-03-22T12:19:36.895Z,2.50
2023-03-22T12:22:11.410Z,3.40
2023-03-22T12:24:38.699Z,3.03
2023-03-22T12:27:17.867Z,1.80
2023-03-22T12:29:59.420Z,5.68
2023-03-22T12:32:34.340Z,3.75
2023-03-22T12:35:18.286Z,2.13
2023-03-22T12:37:52.022Z,1.67
2023-03-22T12:40:42.369Z,4.10
2023-03-22T12:43:18.362Z,1.70
2023-03-22T12:45:56.288Z,2.22
2023-03-22T12:48:29.324Z,3.70
2023-03-22T12:51:05.786Z,3.35
2023-03-22T12:53:42.745Z,2.33
2023-03-22T12:56:12.879Z,2.30
2023-03-22T12:58:40.027Z,3.42
2023-03-22T13:01:23.728Z,3.25
2023-03-22T13:03:53.930Z,2.08
2023-03-22T13:06:35.378Z,2.50
2023-03-22T13:09:17.021Z,2.70
2023-03-22T13:11:49.768Z,1.67
2023-03-22T13:14:45.888Z,4.35
2023-03-22T13:17:13.651Z,3.72
2023-03-22T13:20:00.888Z,1.48
2023-03-22T13:22:51.180Z,2.35
2023-03-22T13:25:19.299Z,2.90
2023-03-22T13:27:46.267Z,1.67
2023-03-22T13:30:57.745Z,3.20
2023-03-22T13:33:29.047Z,4.35
2023-03-22T13:36:25.950Z,2.65
2023-03-22T13:39:05.112Z,1.73
2023-03-22T13:41:35.155Z,2.05
2023-03-22T13:44:19.416Z,3.88
2023-03-22T13:46:53.923Z,1.75
2023-03-22T13:49:42.400Z,6.95
2023-03-22T13:52:22.565Z,1.58
2023-03-22T13:54:52.744Z,1.63
2023-03-22T13:57:45.880Z,3.28
2023-03-22T14:00:22.461Z,4.55
2023-03-22T14:02:50.845Z,3.20
2023-03-22T14:05:22.502Z,9.55
2023-03-22T14:07:58.293Z,7.88
2023-03-22T14:10:28.688Z,2.00
2023-03-22T14:13:02.686Z,3.58
2023-03-22T14:15:34.705Z,2.70
2023-03-22T14:18:08.514Z,1.63
2023-03-22T14:20:38.863Z,2.75
